Time;durP1;ratioP1;P1;durP2;ratioP2;P2;SDS_P1;SDS_P2;PMS_P1;PMS_P2;Temp;Humidity;BMP_temperature;BMP_pressure;BME280_temperature;BME280_humidity;BME280_pressure;Samples;Min_cycle;Max_cycle;Signal;HPM_P1;HPM_P2
2021/06/22 00:01:54;;;;;;;36.13;7.50;;;;;;;21.23;78.02;99354.13;1696052;84;21076;-62
2021/06/22 00:04:21;;;;;;;29.02;7.42;;;;;;;21.26;78.09;99362.53;1695876;84;21569;-61
2021/06/22 00:06:47;;;;;;;39.45;8.48;;;;;;;21.32;78.20;99357.57;1696112;84;21022;-62
2021/06/22 00:09:14;;;;;;;25.08;6.55;;;;;;;21.41;78.15;99359.59;1695729;84;21058;-62
2021/06/22 00:11:41;;;;;;;24.12;6.78;;;;;;;21.44;77.97;99348.39;1695811;84;21093;-62
2021/06/22 00:14:07;;;;;;;19.20;5.28;;;;;;;21.42;77.90;99354.87;1693610;84;21085;-62
2021/06/22 00:16:34;;;;;;;18.00;5.80;;;;;;;21.45;77.69;99352.77;1739080;82;21072;-62
2021/06/22 00:19:00;;;;;;;18.10;5.28;;;;;;;21.53;77.28;99360.13;1703970;84;21519;-62
2021/06/22 00:21:26;;;;;;;17.73;5.45;;;;;;;21.51;76.76;99363.81;1704104;84;21063;-62
2021/06/22 00:23:54;;;;;;;12.88;6.25;;;;;;;21.38;76.58;99362.27;1699254;84;21087;-62
2021/06/22 00:26:20;;;;;;;11.73;4.97;;;;;;;21.22;76.89;99353.92;1699046;84;21059;-61
2021/06/22 00:28:47;;;;;;;19.00;5.95;;;;;;;21.13;77.11;99352.66;1699262;84;21063;-63
2021/06/22 00:31:14;;;;;;;25.23;7.95;;;;;;;21.08;77.29;99355.63;1699013;84;21079;-62
2021/06/22 00:33:40;;;;;;;17.67;6.85;;;;;;;21.08;77.59;99350.70;1699371;84;21027;-62
2021/06/22 00:36:08;;;;;;;16.45;6.40;;;;;;;21.09;77.83;99348.95;1698917;84;21087;-62
2021/06/22 00:38:34;;;;;;;16.48;6.05;;;;;;;21.06;77.97;99343.31;1625668;84;21003;-62
2021/06/22 00:41:01;;;;;;;15.75;6.10;;;;;;;21.02;78.06;99340.44;1699099;84;21566;-61
2021/06/22 00:43:27;;;;;;;17.50;6.00;;;;;;;20.95;78.16;99340.23;1699109;84;21035;-61
2021/06/22 00:45:54;;;;;;;15.98;6.35;;;;;;;20.89;78.34;99339.45;1699129;84;21111;-61
2021/06/22 00:48:22;;;;;;;19.45;6.75;;;;;;;20.84;78.47;99337.72;1698843;84;21556;-62
2021/06/22 00:50:48;;;;;;;26.40;7.10;;;;;;;20.78;78.61;99333.02;1699320;84;21070;-61
2021/06/22 00:53:15;;;;;;;24.80;7.75;;;;;;;20.76;78.74;99335.91;1669865;84;21039;-62
2021/06/22 00:55:43;;;;;;;30.27;7.50;;;;;;;20.72;78.94;99340.52;1699287;84;21102;-61
2021/06/22 00:58:09;;;;;;;35.90;7.55;;;;;;;20.71;79.11;99349.97;1699356;84;21003;-61
2021/06/22 01:00:38;;;;;;;26.95;6.25;;;;;;;20.71;79.17;99352.16;1699219;84;21582;-62
2021/06/22 01:03:04;;;;;;;22.25;7.28;;;;;;;20.73;79.21;99353.17;1699350;84;21526;-61
2021/06/22 01:05:33;;;;;;;26.27;7.15;;;;;;;20.72;79.26;99355.73;1697565;84;21629;-61
2021/06/22 01:08:00;;;;;;;28.75;8.15;;;;;;;20.71;79.32;99356.31;1669924;84;21003;-61
2021/06/22 01:10:28;;;;;;;35.70;7.97;;;;;;;20.71;79.56;99356.88;1669548;84;21039;-61
2021/06/22 01:12:54;;;;;;;32.05;8.33;;;;;;;20.72;79.77;99357.12;1699383;84;21680;-61
2021/06/22 01:15:26;;;;;;;28.75;7.70;;;;;;;20.73;79.83;99353.98;1698926;84;21075;-61
2021/06/22 01:17:54;;;;;;;40.75;8.90;;;;;;;20.73;79.99;99342.11;1699278;84;21556;-61
2021/06/22 01:20:22;;;;;;;42.78;9.05;;;;;;;20.69;80.22;99346.75;1699244;84;21601;-62
2021/06/22 01:22:49;;;;;;;39.23;8.63;;;;;;;20.66;80.32;99341.89;1699186;84;21011;-61
2021/06/22 01:25:15;;;;;;;36.35;9.23;;;;;;;20.64;80.45;99338.11;1699184;84;21130;-61
2021/06/22 01:27:42;;;;;;;44.67;10.55;;;;;;;20.66;80.56;99346.04;1699278;84;21000;-61
2021/06/22 01:30:10;;;;;;;65.35;12.00;;;;;;;20.70;80.74;99342.23;1699314;84;21059;-61
2021/06/22 01:32:38;;;;;;;51.13;9.93;;;;;;;20.74;80.73;99335.44;1668876;84;21582;-62
2021/06/22 01:35:08;;;;;;;47.55;9.33;;;;;;;20.78;80.71;99332.20;1669859;84;21086;-61
2021/06/22 01:37:35;;;;;;;42.08;9.25;;;;;;;20.79;80.60;99328.30;1699207;84;21019;-61
2021/06/22 01:40:05;;;;;;;35.28;7.90;;;;;;;20.76;80.61;99324.84;1698931;84;21102;-61
2021/06/22 01:42:32;;;;;;;42.05;8.90;;;;;;;20.68;80.61;99309.98;1699184;84;21047;-63
2021/06/22 01:44:59;;;;;;;42.65;9.58;;;;;;;20.70;80.85;99317.92;1699008;84;21139;-63
2021/06/22 01:47:25;;;;;;;35.38;8.35;;;;;;;20.65;80.85;99320.34;1699379;84;21003;-62
2021/06/22 01:49:59;;;;;;;20.97;7.95;;;;;;;20.56;80.87;99315.53;1699094;84;21047;-63
2021/06/22 01:52:27;;;;;;;28.75;8.35;;;;;;;20.46;80.96;99317.96;1699286;84;20977;-63
2021/06/22 01:54:58;;;;;;;22.35;7.37;;;;;;;20.36;81.16;99317.86;1699262;84;21058;-63
2021/06/22 01:57:24;;;;;;;23.25;7.33;;;;;;;20.25;81.38;99311.15;1699328;84;21042;-63
2021/06/22 01:59:52;;;;;;;30.52;8.60;;;;;;;20.17;81.63;99317.02;1698570;84;21048;-63
2021/06/22 02:02:20;;;;;;;26.17;7.75;;;;;;;20.13;81.86;99315.28;1698660;84;20996;-62
2021/06/22 02:04:53;;;;;;;28.98;8.80;;;;;;;20.09;82.12;99316.55;1697535;84;21054;-63
2021/06/22 02:07:22;;;;;;;33.10;8.83;;;;;;;20.08;82.27;99312.19;1699255;84;20999;-63
2021/06/22 02:10:04;;;;;;;39.35;9.73;;;;;;;20.11;82.38;99313.45;1697674;84;21110;-62
2021/06/22 02:12:47;;;;;;;37.20;8.73;;;;;;;20.13;82.45;99318.05;1648580;87;21027;-63
2021/06/22 02:15:16;;;;;;;47.53;10.90;;;;;;;20.16;82.58;99324.26;1684155;83;21165;-62
2021/06/22 02:17:42;;;;;;;45.03;10.95;;;;;;;20.17;82.80;99322.55;1714432;84;21019;-64
2021/06/22 02:20:11;;;;;;;39.45;10.23;;;;;;;20.21;83.00;99323.47;1704634;84;21561;-63
2021/06/22 02:22:40;;;;;;;50.50;11.57;;;;;;;20.28;83.04;99320.97;1714383;84;21537;-63
2021/06/22 02:25:09;;;;;;;57.98;11.90;;;;;;;20.34;82.95;99314.05;1678249;84;21098;-62
2021/06/22 02:27:36;;;;;;;54.03;10.85;;;;;;;20.39;82.88;99308.06;1714338;84;21015;-63
2021/06/22 02:30:12;;;;;;;70.12;12.50;;;;;;;20.44;82.79;99305.08;1704723;84;21569;-63
2021/06/22 02:32:39;;;;;;;58.30;12.07;;;;;;;20.46;82.62;99300.80;1714521;84;20999;-63
2021/06/22 02:35:10;;;;;;;48.42;11.97;;;;;;;20.50;82.50;99303.67;1685292;85;21134;-62
2021/06/22 02:37:39;;;;;;;59.42;12.25;;;;;;;20.50;82.34;99297.57;1704823;84;21023;-62
2021/06/22 02:40:09;;;;;;;65.90;13.00;;;;;;;20.53;82.24;99302.97;1714376;84;21612;-63
2021/06/22 02:42:36;;;;;;;60.08;13.25;;;;;;;20.56;82.17;99302.27;1678669;84;21035;-65
2021/06/22 02:45:09;;;;;;;58.48;12.75;;;;;;;20.57;82.04;99309.42;1713640;84;21093;-65
2021/06/22 02:47:36;;;;;;;72.32;13.30;;;;;;;20.62;81.88;99305.02;1679065;84;21011;-63
2021/06/22 02:50:04;;;;;;;62.43;13.43;;;;;;;20.66;81.70;99299.84;1714333;84;21707;-63
2021/06/22 02:52:31;;;;;;;60.88;13.35;;;;;;;20.70;81.52;99297.17;1678600;84;21071;-64
2021/06/22 02:54:59;;;;;;;67.00;13.85;;;;;;;20.74;81.25;99291.18;1714127;84;21154;-63
2021/06/22 02:57:26;;;;;;;62.90;13.68;;;;;;;20.75;81.04;99295.56;1704652;84;21498;-64
2021/06/22 02:59:54;;;;;;;61.23;12.63;;;;;;;20.75;80.90;99288.08;1714350;84;21133;-64
2021/06/22 03:02:21;;;;;;;69.45;12.95;;;;;;;20.78;80.84;99292.09;1704511;84;21509;-65
2021/06/22 03:04:48;;;;;;;71.90;12.82;;;;;;;20.85;80.74;99299.22;1663295;85;21072;-64
2021/06/22 03:07:16;;;;;;;69.30;13.25;;;;;;;20.94;80.65;99307.40;1714229;84;21538;-64
2021/06/22 03:09:43;;;;;;;76.17;12.73;;;;;;;21.06;80.45;99305.38;1704826;84;20991;-65
2021/06/22 03:12:10;;;;;;;77.17;12.82;;;;;;;21.21;80.24;99308.82;1714170;84;21050;-62
2021/06/22 03:14:44;;;;;;;66.90;13.80;;;;;;;21.36;79.68;99302.30;1700227;83;20990;-62
2021/06/22 03:17:19;;;;;;;65.30;13.10;;;;;;;21.47;79.38;99302.02;1698130;84;21608;-64
2021/06/22 03:19:45;;;;;;;77.82;14.80;;;;;;;21.63;79.04;99312.53;1699352;84;21073;-64
2021/06/22 03:22:13;;;;;;;76.92;14.20;;;;;;;21.76;78.55;99310.71;1698936;84;21024;-64
2021/06/22 03:24:42;;;;;;;87.12;15.00;;;;;;;21.88;78.36;99309.02;1699180;84;21058;-64
2021/06/22 03:27:08;;;;;;;83.82;14.25;;;;;;;22.04;77.85;99310.66;1698774;84;21122;-64
2021/06/22 03:30:25;;;;;;;82.72;16.00;;;;;;;22.30;77.00;99305.38;1793571;79;22855;-65
2021/06/22 03:32:52;;;;;;;96.50;15.40;;;;;;;22.37;76.43;99308.90;1753232;82;21030;-65
2021/06/22 03:35:19;;;;;;;103.32;15.55;;;;;;;22.48;76.09;99318.28;1752685;82;21035;-65
2021/06/22 03:37:45;;;;;;;97.15;16.15;;;;;;;22.65;75.62;99330.36;1753074;82;21554;-64
2021/06/22 03:40:16;;;;;;;93.40;15.10;;;;;;;22.89;74.98;99332.69;1752799;82;21581;-65
2021/06/22 03:42:44;;;;;;;105.30;17.70;;;;;;;23.05;74.41;99334.27;1724762;82;21565;-64
2021/06/22 03:45:12;;;;;;;98.52;15.90;;;;;;;23.17;73.64;99349.38;1723784;82;21094;-64
2021/06/22 03:47:40;;;;;;;106.63;16.65;;;;;;;23.30;72.75;99338.37;1719839;82;20939;-64
2021/06/22 03:50:10;;;;;;;100.18;16.25;;;;;;;23.50;72.06;99335.59;1752762;82;21153;-64
2021/06/22 03:52:37;;;;;;;98.17;17.50;;;;;;;23.63;71.46;99335.67;1753088;81;20991;-62
2021/06/22 03:55:26;;;;;;;97.62;16.75;;;;;;;23.65;70.80;99336.90;1752738;82;21071;-62
2021/06/22 03:57:38;;;;;;;103.87;15.48;;;;;;;23.70;70.48;99345.53;1749407;82;21034;-62
2021/06/22 04:00:08;;;;;;;95.05;15.88;;;;;;;23.79;69.75;99332.19;1751470;82;21083;-63
2021/06/22 04:02:36;;;;;;;91.75;15.53;;;;;;;23.87;69.36;99332.55;1751502;82;21548;-64
2021/06/22 04:05:05;;;;;;;95.28;18.17;;;;;;;23.96;69.47;99330.31;1752760;82;21118;-64
2021/06/22 04:07:42;;;;;;;100.07;17.55;;;;;;;24.07;69.10;99334.67;1725077;82;21039;-64
2021/06/22 04:10:11;;;;;;;130.93;16.60;;;;;;;24.19;68.66;99339.50;1752696;82;21098;-63
2021/06/22 04:12:39;;;;;;;99.00;16.75;;;;;;;24.34;67.88;99341.90;1752820;82;21431;-63
2021/06/22 04:15:06;;;;;;;97.95;15.78;;;;;;;24.43;66.78;99343.05;1752873;82;21043;-63
2021/06/22 04:17:33;;;;;;;103.02;16.25;;;;;;;24.41;67.11;99344.02;1723780;82;20936;-63
2021/06/22 04:20:02;;;;;;;69.22;12.20;;;;;;;24.66;66.77;99321.53;1723819;82;21098;-63
2021/06/22 04:22:29;;;;;;;92.42;15.35;;;;;;;24.66;66.77;99321.53;1723846;82;20971;-62
2021/06/22 04:25:00;;;;;;;79.90;14.65;;;;;;;24.72;66.14;99315.28;1748482;82;21032;-63
2021/06/22 04:27:26;;;;;;;72.45;13.20;;;;;;;24.84;65.36;99319.83;1753153;82;20991;-63
2021/06/22 04:29:53;;;;;;;97.90;16.37;;;;;;;24.91;65.05;99319.93;1743812;82;21067;-65
2021/06/22 04:32:19;;;;;;;86.17;14.63;;;;;;;24.98;64.48;99317.83;1739980;82;21464;-64
2021/06/22 04:34:46;;;;;;;77.53;13.72;;;;;;;24.98;64.10;99314.46;1739842;82;21028;-62
2021/06/22 04:37:12;;;;;;;82.33;15.10;;;;;;;25.03;63.93;99310.55;1740048;82;21496;-63
2021/06/22 04:39:39;;;;;;;80.67;13.83;;;;;;;25.09;63.26;99311.81;1739691;82;21055;-64
2021/06/22 04:42:06;;;;;;;78.17;14.05;;;;;;;25.10;63.10;99322.59;1739307;82;21020;-64
2021/06/22 04:44:33;;;;;;;81.12;14.00;;;;;;;25.15;63.15;99321.45;1739126;82;21047;-62
2021/06/22 04:46:59;;;;;;;75.55;13.30;;;;;;;25.33;63.29;99323.07;1738983;82;21412;-62
2021/06/22 04:49:26;;;;;;;79.82;13.25;;;;;;;25.63;62.77;99330.80;1739248;82;21625;-63
2021/06/22 04:51:52;;;;;;;74.62;13.40;;;;;;;25.92;62.09;99336.08;1739272;82;21633;-64
2021/06/22 04:54:19;;;;;;;77.90;13.53;;;;;;;26.13;60.82;99340.47;1738991;82;21090;-62
2021/06/22 04:56:48;;;;;;;62.08;11.25;;;;;;;26.24;60.51;99331.63;1739363;82;21523;-64
2021/06/22 04:59:14;;;;;;;69.40;13.58;;;;;;;26.32;59.89;99333.30;1739179;82;21079;-62
2021/06/22 05:01:41;;;;;;;78.57;13.43;;;;;;;26.35;59.93;99326.14;1739217;82;21592;-62
2021/06/22 05:04:07;;;;;;;70.35;12.65;;;;;;;26.50;59.93;99327.23;1739189;82;21106;-65
2021/06/22 05:06:34;;;;;;;81.85;13.40;;;;;;;26.63;59.13;99320.77;1739126;82;21015;-63
2021/06/22 05:09:01;;;;;;;63.13;12.75;;;;;;;26.60;58.49;99320.14;1739034;82;21110;-64
2021/06/22 05:11:27;;;;;;;69.87;12.35;;;;;;;26.56;58.68;99318.73;1739013;82;21111;-64
2021/06/22 05:13:56;;;;;;;69.42;12.40;;;;;;;26.66;58.79;99319.39;1739023;82;21091;-63
2021/06/22 05:16:23;;;;;;;68.87;12.47;;;;;;;26.73;58.85;99308.86;1739259;82;21024;-64
2021/06/22 05:18:49;;;;;;;60.25;11.50;;;;;;;26.85;57.76;99318.34;1739450;82;21535;-65
2021/06/22 05:21:16;;;;;;;73.12;12.55;;;;;;;26.88;57.57;99311.97;1739308;82;21555;-64
2021/06/22 05:23:43;;;;;;;66.40;11.25;;;;;;;26.97;57.07;99324.97;1739408;82;21443;-64
2021/06/22 05:26:09;;;;;;;64.30;12.47;;;;;;;27.04;55.52;99311.05;1739303;82;21056;-66
2021/06/22 05:28:36;;;;;;;57.33;9.63;;;;;;;27.02;55.39;99316.83;1739791;81;21000;-64
2021/06/22 05:31:03;;;;;;;56.08;10.63;;;;;;;27.00;55.27;99318.61;1753401;82;21514;-66
2021/06/22 05:33:29;;;;;;;56.42;10.80;;;;;;;27.06;55.50;99321.84;1753361;82;21023;-64
2021/06/22 05:35:56;;;;;;;68.57;10.65;;;;;;;27.16;54.98;99319.69;1753030;82;21043;-65
2021/06/22 05:38:22;;;;;;;50.85;9.28;;;;;;;27.19;54.34;99311.33;1725636;82;21043;-64
2021/06/22 05:40:49;;;;;;;66.90;11.00;;;;;;;27.29;54.67;99310.34;1753035;82;21063;-63
2021/06/22 05:43:16;;;;;;;55.35;9.45;;;;;;;27.47;53.99;99312.05;1753082;82;21054;-64
2021/06/22 05:45:42;;;;;;;63.15;10.23;;;;;;;27.59;53.56;99310.89;1753277;82;21429;-63
2021/06/22 05:48:09;;;;;;;55.38;9.30;;;;;;;27.57;53.09;99307.08;1752935;82;21012;-64
2021/06/22 05:50:35;;;;;;;56.10;10.03;;;;;;;27.75;53.90;99314.11;1753175;82;21046;-63
2021/06/22 05:53:03;;;;;;;56.08;9.75;;;;;;;28.05;52.96;99320.16;1752946;82;21071;-63
2021/06/22 05:55:30;;;;;;;46.10;7.97;;;;;;;28.28;50.45;99320.38;1753089;81;21051;-63
2021/06/22 05:58:00;;;;;;;48.28;8.73;;;;;;;28.37;49.92;99324.39;1753086;82;21047;-64
2021/06/22 06:00:29;;;;;;;55.40;9.88;;;;;;;28.35;49.75;99320.38;1753086;82;21079;-64
2021/06/22 06:02:56;;;;;;;45.00;7.85;;;;;;;28.42;49.89;99321.77;1753456;82;21441;-64
2021/06/22 06:05:22;;;;;;;38.42;8.15;;;;;;;28.48;50.11;99320.99;1753320;82;21085;-63
2021/06/22 06:07:49;;;;;;;43.78;7.90;;;;;;;28.64;50.01;99322.76;1753282;82;21019;-64
2021/06/22 06:10:17;;;;;;;40.35;7.92;;;;;;;28.79;48.65;99315.77;1752970;82;21114;-64
2021/06/22 06:12:45;;;;;;;43.73;7.62;;;;;;;28.91;48.10;99311.14;1753421;81;21063;-62
2021/06/22 06:15:14;;;;;;;44.18;8.43;;;;;;;28.87;47.42;99308.95;1752932;82;21071;-64
2021/06/22 06:17:42;;;;;;;51.30;8.25;;;;;;;28.82;47.80;99309.34;1726244;82;20971;-63
2021/06/22 06:20:11;;;;;;;46.80;8.08;;;;;;;28.83;47.60;99300.55;1752997;81;21562;-64
2021/06/22 06:22:37;;;;;;;45.33;8.65;;;;;;;28.77;47.07;99304.95;1753406;81;20972;-64
2021/06/22 06:25:06;;;;;;;36.83;7.28;;;;;;;28.71;47.40;99303.77;1753036;82;21063;-64
2021/06/22 06:27:51;;;;;;;39.03;7.08;;;;;;;28.71;47.80;99295.37;1753363;82;21014;-64
2021/06/22 06:30:23;;;;;;;37.48;6.25;;;;;;;28.72;47.59;99297.57;1744398;82;21519;-64
2021/06/22 06:32:46;;;;;;;37.50;6.55;;;;;;;28.86;47.26;99305.34;1738471;82;21008;-64
2021/06/22 06:35:13;;;;;;;37.45;6.03;;;;;;;29.04;46.93;99299.08;1739131;82;21047;-65
2021/06/22 06:37:40;;;;;;;38.90;7.28;;;;;;;29.21;44.74;99298.00;1718923;82;20980;-63
2021/06/22 06:48:28;;;;;;;;;;;;;;;29.21;45.66;99278.39;1804120;79;22869;-63
2021/06/22 06:50:54;;;;;;;37.75;6.78;;;;;;;29.22;46.70;99284.20;1756694;81;20577;-64
2021/06/22 06:53:20;;;;;;;33.33;7.03;;;;;;;29.39;45.37;99288.34;1753027;82;21019;-64
2021/06/22 06:59:18;;;;;;;46.37;7.78;;;;;;;29.83;44.52;99284.08;1819199;79;22876;-63
2021/06/22 07:01:44;;;;;;;34.15;6.08;;;;;;;29.85;43.26;99284.48;1788101;79;21043;-63
2021/06/22 07:04:10;;;;;;;29.50;6.72;;;;;;;29.82;43.43;99279.06;1787614;80;21528;-63
2021/06/22 07:06:37;;;;;;;39.20;7.15;;;;;;;29.85;43.68;99281.08;1787671;79;21011;-62
2021/06/22 07:09:05;;;;;;;29.63;6.22;;;;;;;29.87;43.82;99286.26;1787421;80;21059;-64
2021/06/22 07:11:32;;;;;;;31.77;5.90;;;;;;;29.95;44.48;99287.21;1787376;79;21070;-63
2021/06/22 07:13:58;;;;;;;26.20;5.45;;;;;;;29.99;42.92;99289.39;1787824;80;21085;-62
2021/06/22 07:16:25;;;;;;;30.20;6.37;;;;;;;29.95;43.51;99292.83;1787454;79;21089;-62
2021/06/22 07:18:51;;;;;;;29.63;5.55;;;;;;;29.97;42.61;99297.41;1787479;80;21066;-61
2021/06/22 07:21:19;;;;;;;29.72;6.03;;;;;;;29.93;42.58;99305.08;1787588;79;21042;-63
2021/06/22 07:23:46;;;;;;;26.75;5.58;;;;;;;29.85;41.28;99302.72;1787461;80;21052;-62
2021/06/22 07:26:13;;;;;;;31.30;5.37;;;;;;;29.75;42.00;99315.59;1787556;79;21067;-62
2021/06/22 07:28:40;;;;;;;25.68;4.92;;;;;;;29.78;42.06;99320.38;1787330;80;21042;-62
2021/06/22 07:31:07;;;;;;;30.55;5.58;;;;;;;29.87;41.98;99326.94;1787551;79;21039;-62
2021/06/22 07:33:34;;;;;;;28.05;5.15;;;;;;;29.83;41.77;99336.75;1787398;80;21046;-62
2021/06/22 07:36:01;;;;;;;32.35;6.08;;;;;;;29.78;42.32;99335.00;1787560;79;21023;-63
2021/06/22 07:38:27;;;;;;;31.60;5.15;;;;;;;29.81;42.37;99339.78;1758994;80;21018;-63
2021/06/22 07:40:56;;;;;;;27.02;4.97;;;;;;;29.72;41.95;99345.86;1787668;79;21003;-62
2021/06/22 07:43:22;;;;;;;23.55;5.17;;;;;;;29.51;43.09;99347.38;1787384;80;21663;-63
2021/06/22 07:45:49;;;;;;;23.92;4.90;;;;;;;29.35;43.26;99340.02;1787644;79;21030;-62
2021/06/22 07:48:15;;;;;;;25.35;5.12;;;;;;;29.23;43.20;99337.66;1787310;80;21074;-62
2021/06/22 07:50:42;;;;;;;25.62;4.92;;;;;;;29.13;43.11;99331.66;1787533;79;21056;-61
2021/06/22 07:53:09;;;;;;;27.42;5.20;;;;;;;29.10;43.51;99342.29;1787306;80;21062;-63
2021/06/22 07:55:35;;;;;;;28.65;5.20;;;;;;;29.09;42.79;99340.68;1787362;79;21533;-62
2021/06/22 07:58:01;;;;;;;21.97;4.75;;;;;;;29.04;42.91;99336.91;1782059;80;21114;-63
2021/06/22 08:03:06;;;;;;;19.10;4.05;;;;;;;29.35;42.82;99330.21;1773936;81;21110;-64
2021/06/22 08:05:35;;;;;;;24.50;4.42;;;;;;;29.42;42.69;99323.17;1774171;80;21035;-63
2021/06/22 08:08:01;;;;;;;25.10;4.97;;;;;;;29.56;43.30;99317.48;1774389;80;21759;-63
2021/06/22 08:10:27;;;;;;;18.67;4.05;;;;;;;29.72;43.55;99320.62;1773377;80;21071;-63
2021/06/22 08:12:54;;;;;;;20.72;3.55;;;;;;;29.84;42.56;99319.32;1773461;81;21046;-61
2021/06/22 08:15:21;;;;;;;23.92;4.47;;;;;;;29.96;41.70;99321.69;1773418;80;21131;-62
2021/06/22 08:17:47;;;;;;;18.82;3.80;;;;;;;30.07;41.03;99319.61;1773317;81;21553;-62
2021/06/22 08:20:14;;;;;;;24.25;4.10;;;;;;;30.12;40.40;99318.55;1773737;80;21110;-61
2021/06/22 08:22:40;;;;;;;20.02;4.42;;;;;;;30.22;40.53;99323.11;1773029;81;21589;-62
2021/06/22 08:25:10;;;;;;;22.37;4.70;;;;;;;30.31;40.11;99318.61;1773435;80;21031;-62
2021/06/22 08:27:36;;;;;;;27.60;4.15;;;;;;;30.38;40.86;99314.33;1773622;81;21048;-62
2021/06/22 08:30:07;;;;;;;25.50;4.40;;;;;;;30.50;40.69;99311.66;1773468;80;21104;-62
2021/06/22 08:32:33;;;;;;;22.17;4.50;;;;;;;30.47;41.55;99303.43;1773446;81;21043;-64
2021/06/22 08:34:59;;;;;;;42.53;7.15;;;;;;;30.44;41.97;99308.48;1773562;80;21085;-63
2021/06/22 08:37:26;;;;;;;42.83;6.00;;;;;;;30.47;40.07;99313.86;1773151;81;21015;-62
2021/06/22 08:39:52;;;;;;;33.95;5.97;;;;;;;30.54;40.13;99316.61;1773693;80;21495;-62
2021/06/22 08:42:20;;;;;;;30.00;5.58;;;;;;;30.59;41.11;99318.98;1773611;81;21062;-61
2021/06/22 08:44:47;;;;;;;34.95;6.12;;;;;;;30.59;41.75;99323.99;1773552;80;21069;-62
2021/06/22 08:47:13;;;;;;;41.50;6.87;;;;;;;30.55;40.42;99329.45;1754397;81;21490;-62
2021/06/22 08:49:40;;;;;;;38.20;6.45;;;;;;;30.43;41.04;99327.94;1773615;80;21404;-63
2021/06/22 08:52:08;;;;;;;38.20;7.00;;;;;;;30.38;40.87;99324.76;1773643;80;20975;-62
2021/06/22 08:54:34;;;;;;;40.08;6.78;;;;;;;30.33;41.54;99326.59;1773173;80;21207;-62
2021/06/22 08:57:01;;;;;;;35.00;6.22;;;;;;;30.34;41.89;99327.59;1773483;81;21054;-62
2021/06/22 08:59:28;;;;;;;47.10;7.20;;;;;;;30.37;41.80;99321.75;1778012;81;21334;-64
2021/06/22 09:01:54;;;;;;;52.13;7.92;;;;;;;30.45;41.43;99312.09;1778793;80;21074;-62
2021/06/22 09:04:20;;;;;;;51.25;8.85;;;;;;;30.54;41.07;99313.80;1779048;80;21046;-64
2021/06/22 09:06:47;;;;;;;76.77;10.75;;;;;;;30.68;40.34;99315.06;1778683;80;21107;-62
2021/06/22 09:09:13;;;;;;;92.78;14.90;;;;;;;30.81;40.26;99317.55;1778790;81;21106;-61
2021/06/22 09:11:40;;;;;;;119.55;18.25;;;;;;;30.94;38.21;99316.40;1778947;80;21593;-61
2021/06/22 09:14:09;;;;;;;116.17;16.67;;;;;;;31.02;36.03;99315.95;1750778;81;21086;-63
2021/06/22 09:16:38;;;;;;;123.65;16.60;;;;;;;31.14;36.13;99322.25;1778853;80;21035;-62
2021/06/22 09:19:07;;;;;;;107.37;16.20;;;;;;;31.24;35.39;99322.72;1778867;81;21067;-64
2021/06/22 09:21:43;;;;;;;103.30;15.18;;;;;;;31.31;35.61;99319.22;1778719;80;21133;-64
2021/06/22 09:24:20;;;;;;;116.90;17.40;;;;;;;31.35;36.07;99314.34;1778957;81;21066;-63
2021/06/22 09:26:49;;;;;;;109.32;16.42;;;;;;;31.40;35.09;99309.64;1778934;80;21039;-64
2021/06/22 09:29:19;;;;;;;114.95;15.88;;;;;;;31.39;35.15;99310.85;1778339;81;21035;-64
2021/06/22 09:31:54;;;;;;;122.15;20.00;;;;;;;31.47;34.84;99303.12;1778957;80;21686;-64
2021/06/22 09:34:24;;;;;;;134.50;20.83;;;;;;;31.47;33.80;99297.50;1779356;80;21526;-63
2021/06/22 09:36:58;;;;;;;120.82;18.92;;;;;;;31.41;33.22;99301.41;1778981;80;21523;-62
2021/06/22 09:39:27;;;;;;;125.50;18.50;;;;;;;31.36;32.22;99287.80;1778935;81;20991;-63
2021/06/22 09:41:53;;;;;;;128.55;19.02;;;;;;;31.38;33.13;99294.42;1778882;80;21027;-63
2021/06/22 09:44:29;;;;;;;128.95;19.00;;;;;;;31.42;33.10;99295.17;1778805;81;21546;-63
2021/06/22 09:46:58;;;;;;;124.95;18.52;;;;;;;31.48;34.26;99290.05;1778923;80;21035;-63
2021/06/22 09:49:30;;;;;;;113.77;18.07;;;;;;;31.58;33.49;99288.33;1778984;81;20999;-61
2021/06/22 09:52:04;;;;;;;119.40;19.20;;;;;;;31.68;32.56;99293.00;1778769;80;21023;-62
2021/06/22 09:54:51;;;;;;;119.95;18.70;;;;;;;31.76;32.43;99293.09;1778845;81;21019;-63
2021/06/22 09:57:23;;;;;;;123.20;18.77;;;;;;;31.88;33.10;99302.38;1778977;80;21363;-63
2021/06/22 09:59:57;;;;;;;117.97;18.73;;;;;;;31.88;32.50;99300.16;1773672;80;21043;-62
2021/06/22 10:02:26;;;;;;;87.17;16.25;;;;;;;31.82;31.92;99294.20;1773635;81;21375;-64
2021/06/22 10:04:59;;;;;;;116.95;17.73;;;;;;;31.76;31.06;99295.11;1773288;80;21111;-61
2021/06/22 10:07:28;;;;;;;113.80;16.87;;;;;;;31.70;31.91;99286.36;1773529;81;21015;-62
2021/06/22 10:10:03;;;;;;;103.97;15.48;;;;;;;31.75;32.31;99285.87;1773427;80;21039;-62
2021/06/22 10:12:31;;;;;;;87.22;15.15;;;;;;;31.83;32.26;99290.17;1773585;80;20972;-63
2021/06/22 10:15:03;;;;;;;97.15;16.12;;;;;;;31.85;31.65;99290.53;1773376;80;21103;-60
2021/06/22 10:17:30;;;;;;;101.30;16.55;;;;;;;31.79;31.46;99276.77;1773163;81;21043;-62
2021/06/22 10:20:02;;;;;;;89.95;15.48;;;;;;;31.80;31.41;99293.05;1773355;80;21555;-63
2021/06/22 10:22:32;;;;;;;98.65;15.08;;;;;;;31.84;32.42;99286.14;1773620;81;20996;-63
2021/06/22 10:25:00;;;;;;;91.75;15.88;;;;;;;31.94;32.39;99276.73;1773381;80;21079;-62
2021/06/22 10:27:28;;;;;;;96.57;17.12;;;;;;;32.00;32.51;99279.24;1773350;80;21039;-63
2021/06/22 10:29:59;;;;;;;83.20;15.60;;;;;;;32.03;31.67;99272.75;1773170;80;21102;-64
2021/06/22 10:32:27;;;;;;;103.95;15.85;;;;;;;32.00;31.27;99277.84;1773397;81;21055;-62
2021/06/22 10:35:00;;;;;;;96.12;14.98;;;;;;;31.97;30.25;99275.88;1773340;80;21030;-62
2021/06/22 10:37:38;;;;;;;94.95;14.95;;;;;;;31.91;30.72;99264.13;1772427;81;21027;-61
2021/06/22 10:40:14;;;;;;;76.35;13.38;;;;;;;31.90;31.75;99269.56;1773458;80;21004;-62
2021/06/22 10:42:55;;;;;;;84.42;13.80;;;;;;;31.91;31.80;99271.16;1773753;80;20995;-62
2021/06/22 10:45:21;;;;;;;107.50;16.30;;;;;;;31.90;32.19;99270.36;1773498;80;21498;-62
2021/06/22 10:47:48;;;;;;;93.90;14.90;;;;;;;31.89;31.23;99268.77;1773720;80;21100;-61
2021/06/22 10:50:29;;;;;;;98.58;16.95;;;;;;;31.90;30.87;99268.95;1773232;80;21059;-62
2021/06/22 10:53:09;;;;;;;110.60;17.35;;;;;;;31.94;31.43;99274.53;1773536;81;20952;-63
2021/06/22 10:55:43;;;;;;;96.70;17.27;;;;;;;31.98;30.84;99268.23;1773487;80;21047;-62
2021/06/22 10:58:12;;;;;;;103.43;16.00;;;;;;;31.98;30.16;99264.81;1773108;80;21090;-63
2021/06/22 11:00:51;;;;;;;102.92;16.73;;;;;;;32.00;29.90;99270.80;1771229;80;21287;-62
2021/06/22 11:03:28;;;;;;;99.87;15.85;;;;;;;31.96;30.96;99270.05;1771176;81;21063;-62
2021/06/22 11:06:14;;;;;;;87.17;15.08;;;;;;;31.96;30.60;99267.24;1771187;80;21542;-61
2021/06/22 11:08:43;;;;;;;100.27;16.57;;;;;;;31.92;30.53;99264.32;1771374;80;21094;-62
2021/06/22 11:11:15;;;;;;;101.82;16.10;;;;;;;31.89;29.67;99260.31;1771392;80;21090;-62
2021/06/22 11:13:55;;;;;;;93.62;16.42;;;;;;;31.83;29.96;99257.02;1771259;80;21041;-62
2021/06/22 11:16:31;;;;;;;91.57;15.32;;;;;;;31.81;30.71;99261.67;1771330;80;21309;-62
2021/06/22 11:19:09;;;;;;;85.70;14.00;;;;;;;31.89;31.01;99266.55;1771474;81;21067;-63
2021/06/22 11:21:51;;;;;;;97.45;16.52;;;;;;;31.92;31.64;99267.91;1771273;80;21672;-63
2021/06/22 11:24:24;;;;;;;99.40;16.67;;;;;;;32.02;30.36;99266.96;1771198;80;21108;-61
2021/06/22 11:26:59;;;;;;;103.15;16.50;;;;;;;32.04;30.76;99265.11;1770985;80;21192;-62
2021/06/22 11:29:40;;;;;;;99.58;17.75;;;;;;;32.05;30.62;99266.71;1771630;81;21027;-62
2021/06/22 11:32:06;;;;;;;97.82;16.32;;;;;;;32.03;31.18;99259.29;1771525;81;20983;-62
2021/06/22 11:34:37;;;;;;;102.40;16.57;;;;;;;32.03;31.51;99259.29;1771285;80;21574;-62
2021/06/22 11:37:12;;;;;;;100.18;16.93;;;;;;;31.99;30.88;99250.90;1758721;81;21511;-64
2021/06/22 11:39:41;;;;;;;108.27;16.97;;;;;;;31.96;31.66;99254.58;1771459;80;21086;-62
2021/06/22 11:42:15;;;;;;;91.50;15.60;;;;;;;31.95;31.93;99254.41;1767871;81;21745;-61